createdAt,value
2023-01-20T00:02:11.758Z,98063.69
2023-01-20T00:07:16.776Z,98062.41
2023-01-20T00:12:21.684Z,98063.63
2023-01-20T00:17:30.593Z,98073.31
2023-01-20T00:22:42.311Z,98069.69
2023-01-20T00:27:47.243Z,98072.31
2023-01-20T00:32:54.752Z,98071.06
2023-01-20T00:37:59.630Z,98082.34
2023-01-20T00:43:04.535Z,98090.19
2023-01-20T00:48:12.723Z,98104.75
2023-01-20T00:53:17.795Z,98103.59
2023-01-20T00:58:23.075Z,98115.25
2023-01-20T01:03:31.399Z,98123.06
2023-01-20T01:08:36.852Z,98127.88
2023-01-20T01:13:42.103Z,98125.56
2023-01-20T01:18:49.700Z,98158.38
2023-01-20T01:23:55.605Z,98165.69
2023-01-20T01:29:00.466Z,98169.03
2023-01-20T01:34:08.025Z,98162.06
2023-01-20T01:39:14.450Z,98168.41
2023-01-20T01:44:20.847Z,98183.13
2023-01-20T01:49:31.832Z,98182.06
2023-01-20T01:54:42.275Z,98186.72
2023-01-20T01:59:47.727Z,98182.94
2023-01-20T02:04:55.605Z,98195.94
2023-01-20T02:10:00.482Z,98195.06
2023-01-20T02:15:07.612Z,98200.78
2023-01-20T02:20:47.555Z,98194.78
2023-01-20T02:26:20.320Z,98203.78
2023-01-20T02:31:49.800Z,98203.47
2023-01-20T02:37:00.822Z,98210.66
2023-01-20T02:42:12.446Z,98210.59
2023-01-20T02:47:22.161Z,98212.31
2023-01-20T02:52:34.276Z,98217.09
2023-01-20T02:57:45.451Z,98224.03
2023-01-20T03:02:53.400Z,98225.16
2023-01-20T03:08:03.305Z,98230.81
2023-01-20T03:13:15.021Z,98239.22
2023-01-20T03:18:19.912Z,98228.19
2023-01-20T03:23:28.448Z,98235.63
2023-01-20T03:28:33.368Z,98243.16
2023-01-20T03:33:38.433Z,98249.97
2023-01-20T03:38:48.128Z,98265.50
2023-01-20T03:44:00.460Z,98264.47
2023-01-20T03:49:12.578Z,98266.22
2023-01-20T03:54:25.357Z,98275.59
2023-01-20T03:59:30.486Z,98266.66
2023-01-20T04:04:37.601Z,98270.41
2023-01-20T04:09:50.528Z,98272.72
2023-01-20T04:14:55.474Z,98280.25
2023-01-20T04:20:03.438Z,98281.28
2023-01-20T04:25:17.544Z,98286.66
2023-01-20T04:30:22.917Z,98293.34
2023-01-20T04:35:28.030Z,98293.69
2023-01-20T04:40:35.575Z,98304.78
2023-01-20T04:45:40.558Z,98310.84
2023-01-20T04:50:45.579Z,98313.06
2023-01-20T04:55:53.247Z,98325.16
2023-01-20T05:00:58.148Z,98333.66
2023-01-20T05:06:03.214Z,98340.00
2023-01-20T05:11:10.866Z,98344.41
2023-01-20T05:16:15.821Z,98347.66
2023-01-20T05:21:20.734Z,98351.22
2023-01-20T05:26:28.829Z,98360.91
2023-01-20T05:31:34.577Z,98360.03
2023-01-20T05:36:42.077Z,98363.31
2023-01-20T05:41:51.883Z,98368.00
2023-01-20T05:46:56.965Z,98372.59
2023-01-20T05:52:01.994Z,98382.00
2023-01-20T05:57:09.574Z,98384.78
2023-01-20T06:02:18.898Z,98386.88
2023-01-20T06:07:23.832Z,98389.53
2023-01-20T06:12:31.403Z,98392.88
2023-01-20T06:17:36.423Z,98404.28
2023-01-20T06:22:41.981Z,98407.72
2023-01-20T06:27:49.669Z,98414.91
2023-01-20T06:32:57.208Z,98417.16
2023-01-20T06:38:05.597Z,98426.09
2023-01-20T06:43:13.480Z,98432.72
2023-01-20T06:48:18.643Z,98435.31
2023-01-20T06:53:24.703Z,98436.13
2023-01-20T06:58:37.823Z,98436.53
2023-01-20T07:03:45.218Z,98438.19
2023-01-20T07:08:51.586Z,98449.97
2023-01-20T07:14:03.945Z,98461.66
2023-01-20T07:19:09.380Z,98471.94
2023-01-20T07:24:14.633Z,98477.50
2023-01-20T07:29:22.187Z,98492.81
2023-01-20T07:34:29.172Z,98505.22
2023-01-20T07:39:36.301Z,98510.53
2023-01-20T07:44:46.049Z,98521.44
2023-01-20T07:49:52.213Z,98527.09
2023-01-20T07:54:57.899Z,98541.00
2023-01-20T08:00:08.731Z,98542.44
2023-01-20T08:05:14.341Z,98557.94
2023-01-20T08:10:20.102Z,98550.03
2023-01-20T08:15:27.810Z,98556.97
2023-01-20T08:20:32.774Z,98567.16
2023-01-20T08:25:37.752Z,98575.38
2023-01-20T08:30:47.057Z,98574.09
2023-01-20T08:35:52.311Z,98590.41
2023-01-20T08:41:01.012Z,98598.94
2023-01-20T08:46:10.940Z,98604.66
2023-01-20T08:51:24.254Z,98610.00
2023-01-20T08:56:32.536Z,98611.19
2023-01-20T09:01:42.266Z,98611.03
2023-01-20T09:06:50.313Z,98609.22
2023-01-20T09:11:55.879Z,98623.47
2023-01-20T09:17:03.910Z,98623.44
2023-01-20T09:22:09.023Z,98632.97
2023-01-20T09:27:21.718Z,98638.81
2023-01-20T09:32:29.731Z,98645.69
2023-01-20T09:37:47.287Z,98649.28
2023-01-20T09:43:17.605Z,98636.34
2023-01-20T09:48:47.719Z,98637.84
2023-01-20T09:54:01.196Z,98637.28
2023-01-20T09:59:17.045Z,98643.09
2023-01-20T10:04:31.210Z,98641.91
2023-01-20T10:09:44.531Z,98647.09
2023-01-20T10:14:56.333Z,98646.16
2023-01-20T10:20:12.283Z,98653.34
2023-01-20T10:25:26.454Z,98643.28
2023-01-20T10:30:36.245Z,98645.25
2023-01-20T10:35:48.685Z,98640.97
2023-01-20T10:41:00.353Z,98659.69
2023-01-20T10:46:19.872Z,98667.44
2023-01-20T10:51:36.018Z,98656.16
2023-01-20T10:56:53.393Z,98669.75
2023-01-20T11:02:11.841Z,98670.38
2023-01-20T11:07:25.861Z,98677.28
2023-01-20T11:12:36.353Z,98681.66
2023-01-20T11:17:42.310Z,98682.69
2023-01-20T11:22:55.055Z,98693.06
2023-01-20T11:28:00.744Z,98691.97
2023-01-20T11:33:20.314Z,98695.03
2023-01-20T11:38:32.410Z,98698.56
2023-01-20T11:43:41.646Z,98703.31
2023-01-20T11:48:48.901Z,98707.16
2023-01-20T11:54:12.856Z,98714.91
2023-01-20T11:59:33.114Z,98726.03
2023-01-20T12:05:06.373Z,98738.25
2023-01-20T12:10:21.109Z,98737.63
2023-01-20T12:15:29.426Z,98745.84
2023-01-20T12:20:54.039Z,98763.16
2023-01-20T12:26:06.829Z,98754.22
2023-01-20T12:31:14.664Z,98756.88
2023-01-20T12:36:44.628Z,98766.00
2023-01-20T12:42:14.633Z,98762.53
2023-01-20T12:47:34.967Z,98773.09
2023-01-20T12:52:51.959Z,98776.25
2023-01-20T12:58:13.472Z,98773.94
2023-01-20T13:03:57.568Z,98780.03
2023-01-20T13:15:11.260Z,98790.69
2023-01-20T13:20:28.414Z,98801.53
2023-01-20T13:25:36.950Z,98792.44
2023-01-20T13:30:53.765Z,98800.09
2023-01-20T13:36:01.013Z,98800.00
2023-01-20T13:41:14.422Z,98809.31
2023-01-20T13:46:53.906Z,98802.50
2023-01-20T13:52:00.461Z,98801.78
2023-01-20T13:57:48.440Z,98817.25
2023-01-20T14:02:59.078Z,98814.59
2023-01-20T14:08:05.621Z,98832.03
2023-01-20T14:13:13.510Z,98823.66
2023-01-20T14:18:25.918Z,98829.91
2023-01-20T14:23:41.188Z,98839.03
2023-01-20T14:28:54.016Z,98850.78
2023-01-20T14:34:05.531Z,98846.13
2023-01-20T14:39:24.401Z,98871.28
2023-01-20T14:44:33.312Z,98871.34
2023-01-20T14:49:45.027Z,98881.50
2023-01-20T14:54:52.182Z,98892.53
2023-01-20T15:00:22.826Z,98905.53
2023-01-20T15:05:36.816Z,98924.66
2023-01-20T15:10:49.190Z,98922.13
2023-01-20T15:15:54.681Z,98923.03
2023-01-20T15:21:20.562Z,98937.88
2023-01-20T15:26:29.787Z,98936.50
2023-01-20T15:37:00.680Z,98944.03
2023-01-20T15:42:15.542Z,98941.59
2023-01-20T15:47:40.638Z,98946.06
2023-01-20T15:53:06.685Z,98961.72
2023-01-20T15:58:30.302Z,98955.59
2023-01-20T16:03:36.148Z,98970.44
2023-01-20T16:08:48.770Z,98977.63
2023-01-20T16:13:55.618Z,98984.44
2023-01-20T16:19:01.333Z,98980.78
2023-01-20T16:24:12.282Z,98996.81
2023-01-20T16:40:20.773Z,99006.75
2023-01-20T16:45:29.800Z,99008.22
2023-01-20T16:50:35.412Z,99028.47
2023-01-20T16:55:49.739Z,99033.38
2023-01-20T17:00:55.453Z,99046.66
2023-01-20T17:06:02.612Z,99051.50
2023-01-20T17:11:23.452Z,99051.88
2023-01-20T17:16:32.950Z,99064.31
2023-01-20T17:21:42.323Z,99050.13
2023-01-20T17:27:01.677Z,99057.75
2023-01-20T17:32:09.528Z,99052.09
2023-01-20T17:37:24.758Z,99064.22
2023-01-20T17:42:44.320Z,99055.94
2023-01-20T17:47:57.256Z,99078.09
2023-01-20T17:53:06.602Z,99092.75
2023-01-20T17:58:21.599Z,99071.53
2023-01-20T18:09:00.452Z,99089.78
2023-01-20T18:14:12.246Z,99097.56
2023-01-20T18:19:21.468Z,99091.00
2023-01-20T18:30:59.428Z,99101.22
2023-01-20T18:36:41.602Z,99095.91
2023-01-20T18:42:12.055Z,99099.56
2023-01-20T18:53:34.204Z,99120.09
2023-01-20T18:59:03.189Z,99127.84
2023-01-20T19:10:19.607Z,99151.38
2023-01-20T19:27:52.529Z,99127.66
2023-01-20T19:50:55.858Z,99145.09
2023-01-20T19:56:37.768Z,99136.31
2023-01-20T20:01:50.235Z,99161.97
2023-01-20T20:12:44.045Z,99170.13
2023-01-20T20:17:58.713Z,99188.84
2023-01-20T20:23:06.026Z,99192.59
2023-01-20T20:33:50.504Z,99192.81
2023-01-20T20:39:04.838Z,99213.50
2023-01-20T20:44:20.409Z,99228.44
2023-01-20T20:49:31.308Z,99229.84
2023-01-20T20:54:43.632Z,99213.44
2023-01-20T21:00:10.178Z,99231.19
2023-01-20T21:05:18.696Z,99240.97
2023-01-20T21:10:27.596Z,99235.19
2023-01-20T21:15:39.409Z,99233.44
2023-01-20T21:20:48.679Z,99233.75
2023-01-20T21:25:55.306Z,99250.41
2023-01-20T21:31:04.307Z,99253.34
2023-01-20T21:36:17.495Z,99257.72
2023-01-20T21:41:26.334Z,99254.28
2023-01-20T21:46:40.868Z,99265.00
2023-01-20T21:52:03.551Z,99255.97
2023-01-20T21:57:13.497Z,99271.56
2023-01-20T22:02:24.299Z,99275.34
2023-01-20T22:07:31.423Z,99283.28
2023-01-20T22:12:38.377Z,99273.78
2023-01-20T22:17:48.127Z,99292.00
2023-01-20T22:23:03.570Z,99277.56
2023-01-20T22:28:09.982Z,99292.00
2023-01-20T22:33:19.870Z,99280.72
2023-01-20T22:38:26.684Z,99284.53
2023-01-20T22:43:37.328Z,99273.66
2023-01-20T22:48:46.864Z,99282.44
2023-01-20T22:53:52.950Z,99275.06
2023-01-20T22:58:59.861Z,99289.19
2023-01-20T23:04:10.723Z,99280.34
2023-01-20T23:09:17.801Z,99298.41
2023-01-20T23:14:43.974Z,99299.53
2023-01-20T23:19:52.654Z,99302.16
2023-01-20T23:24:59.206Z,99294.91
2023-01-20T23:30:06.043Z,99301.44
2023-01-20T23:35:16.436Z,99315.75
2023-01-20T23:40:27.011Z,99302.03
2023-01-20T23:45:32.734Z,99309.31
2023-01-20T23:50:41.724Z,99316.28
2023-01-20T23:55:47.692Z,99326.72
